Bookmark and Share
Track history (hours):
 

S C

Last reported at 2014-Apr-23 09:33 UTC. Time now 2014-Apr-23 09:42 UTC.
Position N 49°29' E 000°07'.

; draft 1 m.

Type: Pilot. MMSI: 227001820.

NotesDate/timePositionNaut miles runAvg speedWind from/ knotsBaromVisibWave heightAir tempDewpointWater temp
2014-Apr-23 09:33N 49°29' E 000°07'0 0.0
2014-Apr-23 08:34N 49°29' E 000°07'0 0.0
2014-Apr-23 07:34N 49°29' E 000°07'0 0.0
2014-Apr-23 06:34N 49°29' E 000°07'0 0.0
2014-Apr-23 05:33N 49°29' E 000°07'0 0.0
2014-Apr-23 04:33N 49°29' E 000°07'0 0.0
2014-Apr-23 03:34N 49°29' E 000°07'1 1.3
2014-Apr-23 02:33N 49°29' E 000°05'1 1.1
2014-Apr-23 01:34N 49°29' E 000°06'0 0.2
2014-Apr-23 00:33N 49°29' E 000°07'1 0.6
2014-Apr-22 23:33N 49°29' E 000°06'1 0.6
2014-Apr-22 22:33N 49°29' E 000°07'0 0.0
2014-Apr-22 21:33N 49°29' E 000°07'2 1.7
2014-Apr-22 20:33N 49°29' E 000°04'2 1.7
2014-Apr-22 19:33N 49°29' E 000°07'6 6.3
2014-Apr-22 18:33N 49°31' W 000°03'6 6.3
2014-Apr-22 17:33N 49°29' E 000°07'0 0.0
2014-Apr-22 16:33N 49°29' E 000°07'0 0.0
2014-Apr-22 15:34N 49°29' E 000°07'0 0.0
2014-Apr-22 14:34N 49°29' E 000°07'0 0.0
2014-Apr-22 13:34N 49°29' E 000°07'0 0.0
2014-Apr-22 12:34N 49°29' E 000°07'0 0.0
2014-Apr-22 11:34N 49°29' E 000°07'0 0.0
2014-Apr-22 10:34N 49°29' E 000°07'0 0.3
2014-Apr-22 09:33N 49°29' E 000°06'2 2.2
2014-Apr-22 08:33N 49°30' E 000°03'2 2.5
2014-Apr-22 07:33N 49°29' E 000°07'9 9.0
2014-Apr-22 06:34N 49°32' W 000°06'9 9.0
2014-Apr-22 05:34N 49°29' E 000°07'7 6.7
2014-Apr-22 04:33N 49°31' W 000°03'4 3.7
2014-Apr-22 03:33N 49°30' E 000°02'3 2.9
2014-Apr-22 02:33N 49°29' E 000°07'8 8.0
2014-Apr-22 01:34N 49°31' W 000°05'8 8.1
2014-Apr-22 00:33N 49°29' E 000°07'0 0.0
2014-Apr-21 23:33N 49°29' E 000°07'0 0.0
2014-Apr-21 22:33N 49°29' E 000°07'0 0.0
2014-Apr-21 21:33N 49°29' E 000°07'7 6.9
2014-Apr-21 20:33N 49°33' W 000°02'7 7.0
2014-Apr-21 19:33N 49°29' E 000°07'0 0.0
2014-Apr-21 18:33N 49°29' E 000°07'5 5.1
2014-Apr-21 17:33N 49°30' W 000°01'0 0.3
2014-Apr-21 16:33N 49°30' W 000°01'5 5.2
2014-Apr-21 15:34N 49°29' E 000°07'0 0.0
2014-Apr-21 14:33N 49°29' E 000°07'0 0.0
2014-Apr-21 13:33N 49°29' E 000°07'0 0.5
2014-Apr-21 12:33N 49°29' E 000°06'3 3.4
2014-Apr-21 11:33N 49°30' E 000°01'3 3.5
2014-Apr-21 10:33N 49°29' E 000°06'4 4.0
2014-Apr-21 09:33N 49°30' E 000°00'4 4.4
2014-Apr-21 08:33N 49°29' E 000°07'0 0.0
2014-Apr-21 07:33N 49°29' E 000°07'0 0.0
2014-Apr-21 06:33N 49°29' E 000°07'0 0.4
2014-Apr-21 05:33N 49°29' E 000°06'0 0.4
2014-Apr-21 04:33N 49°29' E 000°07'0 0.3
2014-Apr-21 03:34N 49°29' E 000°06'5 5.2
2014-Apr-21 02:33N 49°31' W 000°01'5 4.5
2014-Apr-21 01:34N 49°29' E 000°05'1 1.0
2014-Apr-21 00:33N 49°29' E 000°07'0 0.0
2014-Apr-20 23:33N 49°29' E 000°07'0 0.0
2014-Apr-20 22:33N 49°29' E 000°07'0 0.0
2014-Apr-20 21:33N 49°29' E 000°07'1 1.0
2014-Apr-20 20:34N 49°29' E 000°05'1 1.0
2014-Apr-20 19:33N 49°29' E 000°07'0 0.0
2014-Apr-20 18:33N 49°29' E 000°07'0 0.0
2014-Apr-20 17:33N 49°29' E 000°07'0 0.0
2014-Apr-20 16:33N 49°29' E 000°07'0 0.0
2014-Apr-20 15:33N 49°29' E 000°07'0 0.0
2014-Apr-20 14:33N 49°29' E 000°07'8 8.1
2014-Apr-20 13:33N 49°32' W 000°05'8 8.2
2014-Apr-20 12:33N 49°29' E 000°07'0 0.0
2014-Apr-20 11:33N 49°29' E 000°07'0 0.0
2014-Apr-20 10:33N 49°29' E 000°07'1 1.3
2014-Apr-20 09:34N 49°29' E 000°05'1 1.4
2014-Apr-20 08:34N 49°29' E 000°07'0 0.0
2014-Apr-20 07:34N 49°29' E 000°07'1 1.2
2014-Apr-20 06:33N 49°29' E 000°05'1 1.2
2014-Apr-20 05:33N 49°29' E 000°07'6 6.4
2014-Apr-20 04:33N 49°31' W 000°03'3 2.6
2014-Apr-20 03:33N 49°31' W 000°07'9 9.0
2014-Apr-20 02:33N 49°29' E 000°07'1 1.2
2014-Apr-20 01:34N 49°29' E 000°05'1 1.2
2014-Apr-20 00:33N 49°29' E 000°07'0 0.0
2014-Apr-19 23:33N 49°29' E 000°07'0 0.0
2014-Apr-19 22:33N 49°29' E 000°07'0 0.0
2014-Apr-19 21:33N 49°29' E 000°07'8 7.6
2014-Apr-19 20:33N 49°30' W 000°05'3 2.6
2014-Apr-19 19:34N 49°30' W 000°01'5 5.0
2014-Apr-19 18:33N 49°29' E 000°07'0 0.0
2014-Apr-19 17:33N 49°29' E 000°07'0 0.0
2014-Apr-19 16:33N 49°29' E 000°07'0 0.0
2014-Apr-19 15:33N 49°29' E 000°07'0 0.0
2014-Apr-19 14:33N 49°29' E 000°07'0 0.0
2014-Apr-19 13:33N 49°29' E 000°07'0 0.0
2014-Apr-19 12:34N 49°29' E 000°07'0 0.0
2014-Apr-19 11:33N 49°29' E 000°07'2 1.5
2014-Apr-19 10:33N 49°29' E 000°04'2 1.5
2014-Apr-19 09:33N 49°29' E 000°07'0 0.0
2014-Apr-19 08:33N 49°29' E 000°07'0 0.0
2014-Apr-19 07:33N 49°29' E 000°07'0 0.0
2014-Apr-19 06:33N 49°29' E 000°07'0 0.0
2014-Apr-19 05:33N 49°29' E 000°07'0 0.0
2014-Apr-19 04:33N 49°29' E 000°07'0 0.0
2014-Apr-19 03:33N 49°29' E 000°07'0 0.0
2014-Apr-19 02:33N 49°29' E 000°07'0 0.0
2014-Apr-19 01:33N 49°29' E 000°07'0 0.0
2014-Apr-19 00:33N 49°29' E 000°07'0 0.0
2014-Apr-18 23:33N 49°29' E 000°07'0 0.0
2014-Apr-18 22:33N 49°29' E 000°07'0 0.0
2014-Apr-18 21:33N 49°29' E 000°07'0 0.0
2014-Apr-18 20:33N 49°29' E 000°07'0 0.0
2014-Apr-18 19:33N 49°29' E 000°07'4 3.6
2014-Apr-18 18:33N 49°29' E 000°01'4 3.6
2014-Apr-18 17:33N 49°29' E 000°07'0 0.0
2014-Apr-18 16:33N 49°29' E 000°07'4 4.4
2014-Apr-18 15:33N 49°31' E 000°01'4 4.5
2014-Apr-18 14:33N 49°29' E 000°07'0 0.0
2014-Apr-18 13:33N 49°29' E 000°07'0 0.4
2014-Apr-18 12:33N 49°29' E 000°06'0 0.4
2014-Apr-18 11:33N 49°29' E 000°07'0 0.1
2014-Apr-18 10:34N 49°29' E 000°07'0 0.1
2014-Apr-18 09:34N 49°29' E 000°07'0 0.0
2014-Apr-18 08:33N 49°29' E 000°07'0 0.1
2014-Apr-18 07:33N 49°29' E 000°07'0 0.1
2014-Apr-18 06:33N 49°29' E 000°07'0 0.0
2014-Apr-18 05:34N 49°29' E 000°07'1 0.5
2014-Apr-18 04:33N 49°29' E 000°06'1 0.5
2014-Apr-18 03:33N 49°29' E 000°07'0 0.0
2014-Apr-18 02:34N 49°29' E 000°07'9 8.8
2014-Apr-18 01:33N 49°31' W 000°06'9 8.8
2014-Apr-18 00:33N 49°29' E 000°07'0 0.0
2014-Apr-17 23:33N 49°29' E 000°07'0 0.0
2014-Apr-17 22:33N 49°29' E 000°07'0 0.0
2014-Apr-17 21:33N 49°29' E 000°07'0 0.0
2014-Apr-17 20:33N 49°29' E 000°07'0 0.0
2014-Apr-17 19:33N 49°29' E 000°07'0 0.0
2014-Apr-17 18:33N 49°29' E 000°07'0 0.0
2014-Apr-17 17:33N 49°29' E 000°07'0 0.0
2014-Apr-17 16:33N 49°29' E 000°07'0 0.0
2014-Apr-17 15:33N 49°29' E 000°07'0 0.0
2014-Apr-17 14:33N 49°29' E 000°07'0 0.0
2014-Apr-16 14:34N 49°29' E 000°07'0 0.0
2014-Apr-16 07:31N 49°29' E 000°07'0 0.0
2014-Apr-15 21:27N 49°29' E 000°07'0 0.0
2014-Apr-15 20:33N 49°29' E 000°07'0 0.0
2014-Apr-15 19:33N 49°29' E 000°07'0 0.0
2014-Apr-15 18:33N 49°29' E 000°07'0 0.0
2014-Apr-15 17:33N 49°29' E 000°07'0 0.0
2014-Apr-15 16:33N 49°29' E 000°07'0 0.0
2014-Apr-15 15:33N 49°29' E 000°07'0 0.0
2014-Apr-15 14:33N 49°29' E 000°07'0 0.0
2014-Apr-15 12:34N 49°29' E 000°07'0 0.0
2014-Apr-15 11:34N 49°29' E 000°07'0 0.0
2014-Apr-15 10:34N 49°29' E 000°07'0 0.0
2014-Apr-15 09:34N 49°29' E 000°07'0 0.0
2014-Apr-15 08:34N 49°29' E 000°07'0 0.0
2014-Apr-15 07:34N 49°29' E 000°07'0 0.0
2014-Apr-15 06:34N 49°29' E 000°07'0 0.0
2014-Apr-15 05:34N 49°29' E 000°07'0 0.0
2014-Apr-14 07:33N 49°29' E 000°07'0 0.0
2014-Apr-14 06:33N 49°29' E 000°07'0 0.0
2014-Apr-14 05:33N 49°29' E 000°07'  

Dump ship's entire track history

sailing weather and tide predictions

S C — FGF7634 — position and weather